Shedd, Oregon
Current Conditions -  °F | °C
As of 12:35 AM on Saturday 29 Nov 2014 (Local Time) from KCVO Reporting Station
Overcast Overcast  
Wind Chill: 42°   Ceiling: 4800
Heat Index: 45°   Visibility: 10mi
Dew Point: 39°   Wind: 5mph
Humidity: 81%   Direction: 300°WNW
Pressure: 29.69"   Gusts: NA
Location:  44.46°N, 123.11°W
Report Text: KCVO 290835Z AUTO 30004KT 10SM SCT037 BKN048 OVC055 07/04 A2969 RMK AO1
Loading
Personal Weather Stations






























Interactive Weather Map New forecast layout! Learn more

10-Day Weather Forecast

Advertisements
Track Severe Weather on mobile